sensor_id;sensor_type;location;lat;lon;timestamp;P1;durP1;ratioP1;P2;durP2;ratioP2
8399;SDS011;4237;47.030;15.396;2023-11-21T00:00:09;21.73;;;14.20;;
8399;SDS011;4237;47.030;15.396;2023-11-21T00:02:40;21.30;;;13.90;;
8399;SDS011;4237;47.030;15.396;2023-11-21T00:05:11;19.60;;;13.83;;
8399;SDS011;4237;47.030;15.396;2023-11-21T00:07:42;15.37;;;12.47;;
8399;SDS011;4237;47.030;15.396;2023-11-21T00:10:11;18.63;;;12.73;;
8399;SDS011;4237;47.030;15.396;2023-11-21T00:12:41;16.97;;;13.07;;
8399;SDS011;4237;47.030;15.396;2023-11-21T00:15:10;16.57;;;13.47;;
8399;SDS011;4237;47.030;15.396;2023-11-21T00:17:39;16.63;;;13.07;;
8399;SDS011;4237;47.030;15.396;2023-11-21T00:20:09;16.77;;;13.40;;
8399;SDS011;4237;47.030;15.396;2023-11-21T00:22:39;16.63;;;13.40;;
8399;SDS011;4237;47.030;15.396;2023-11-21T00:25:08;18.93;;;13.53;;
8399;SDS011;4237;47.030;15.396;2023-11-21T00:27:37;14.93;;;12.50;;
8399;SDS011;4237;47.030;15.396;2023-11-21T00:30:06;18.00;;;13.20;;
8399;SDS011;4237;47.030;15.396;2023-11-21T00:32:35;17.90;;;12.83;;
8399;SDS011;4237;47.030;15.396;2023-11-21T00:35:05;20.33;;;14.90;;
8399;SDS011;4237;47.030;15.396;2023-11-21T00:37:34;18.83;;;13.83;;
8399;SDS011;4237;47.030;15.396;2023-11-21T00:40:05;15.40;;;13.20;;
8399;SDS011;4237;47.030;15.396;2023-11-21T00:42:34;17.70;;;12.70;;
8399;SDS011;4237;47.030;15.396;2023-11-21T00:45:04;16.70;;;13.27;;
8399;SDS011;4237;47.030;15.396;2023-11-21T00:47:34;17.80;;;13.03;;
8399;SDS011;4237;47.030;15.396;2023-11-21T00:50:02;14.73;;;12.57;;
8399;SDS011;4237;47.030;15.396;2023-11-21T00:52:33;18.00;;;13.93;;
8399;SDS011;4237;47.030;15.396;2023-11-21T00:55:02;18.50;;;14.33;;
8399;SDS011;4237;47.030;15.396;2023-11-21T00:57:31;18.83;;;14.40;;
8399;SDS011;4237;47.030;15.396;2023-11-21T00:59:59;28.37;;;18.47;;
8399;SDS011;4237;47.030;15.396;2023-11-21T01:02:29;24.03;;;17.67;;
8399;SDS011;4237;47.030;15.396;2023-11-21T01:04:58;21.17;;;16.67;;
8399;SDS011;4237;47.030;15.396;2023-11-21T01:07:27;21.20;;;16.90;;
8399;SDS011;4237;47.030;15.396;2023-11-21T01:09:56;19.10;;;16.03;;
8399;SDS011;4237;47.030;15.396;2023-11-21T01:12:24;18.40;;;14.47;;
8399;SDS011;4237;47.030;15.396;2023-11-21T01:14:53;18.10;;;14.20;;
8399;SDS011;4237;47.030;15.396;2023-11-21T01:17:21;20.17;;;14.67;;
8399;SDS011;4237;47.030;15.396;2023-11-21T01:19:50;21.00;;;15.83;;
8399;SDS011;4237;47.030;15.396;2023-11-21T01:22:19;21.33;;;16.10;;
8399;SDS011;4237;47.030;15.396;2023-11-21T01:24:49;18.47;;;16.47;;
8399;SDS011;4237;47.030;15.396;2023-11-21T01:27:18;22.77;;;16.83;;
8399;SDS011;4237;47.030;15.396;2023-11-21T01:29:46;21.87;;;17.13;;
8399;SDS011;4237;47.030;15.396;2023-11-21T01:32:15;26.50;;;17.90;;
8399;SDS011;4237;47.030;15.396;2023-11-21T01:34:43;22.20;;;16.97;;
8399;SDS011;4237;47.030;15.396;2023-11-21T01:37:12;21.13;;;16.70;;
8399;SDS011;4237;47.030;15.396;2023-11-21T01:39:40;21.10;;;16.20;;
8399;SDS011;4237;47.030;15.396;2023-11-21T01:42:09;20.17;;;15.80;;
8399;SDS011;4237;47.030;15.396;2023-11-21T01:44:39;22.53;;;16.33;;
8399;SDS011;4237;47.030;15.396;2023-11-21T01:47:08;21.50;;;15.13;;
8399;SDS011;4237;47.030;15.396;2023-11-21T01:49:37;21.47;;;14.77;;
8399;SDS011;4237;47.030;15.396;2023-11-21T01:52:06;18.13;;;13.70;;
8399;SDS011;4237;47.030;15.396;2023-11-21T01:54:35;18.97;;;14.50;;
8399;SDS011;4237;47.030;15.396;2023-11-21T01:57:04;18.20;;;13.17;;
8399;SDS011;4237;47.030;15.396;2023-11-21T01:59:36;17.07;;;13.10;;
8399;SDS011;4237;47.030;15.396;2023-11-21T02:02:06;21.37;;;13.93;;
8399;SDS011;4237;47.030;15.396;2023-11-21T02:04:36;18.80;;;12.90;;
8399;SDS011;4237;47.030;15.396;2023-11-21T02:07:05;16.53;;;13.37;;
8399;SDS011;4237;47.030;15.396;2023-11-21T02:09:33;15.63;;;13.03;;
8399;SDS011;4237;47.030;15.396;2023-11-21T02:12:04;15.87;;;12.03;;
8399;SDS011;4237;47.030;15.396;2023-11-21T02:14:33;17.27;;;12.20;;
8399;SDS011;4237;47.030;15.396;2023-11-21T02:17:01;14.77;;;12.10;;
8399;SDS011;4237;47.030;15.396;2023-11-21T02:19:30;16.27;;;12.80;;
8399;SDS011;4237;47.030;15.396;2023-11-21T02:21:59;16.40;;;12.63;;
8399;SDS011;4237;47.030;15.396;2023-11-21T02:24:30;17.47;;;13.17;;
8399;SDS011;4237;47.030;15.396;2023-11-21T02:26:58;17.90;;;13.70;;
8399;SDS011;4237;47.030;15.396;2023-11-21T02:29:27;20.93;;;14.03;;
8399;SDS011;4237;47.030;15.396;2023-11-21T02:31:56;18.13;;;13.70;;
8399;SDS011;4237;47.030;15.396;2023-11-21T02:34:26;17.17;;;13.23;;
8399;SDS011;4237;47.030;15.396;2023-11-21T02:36:55;15.73;;;12.77;;
8399;SDS011;4237;47.030;15.396;2023-11-21T02:39:24;17.40;;;12.57;;
8399;SDS011;4237;47.030;15.396;2023-11-21T02:41:52;14.13;;;11.20;;
8399;SDS011;4237;47.030;15.396;2023-11-21T02:44:21;16.53;;;13.07;;
8399;SDS011;4237;47.030;15.396;2023-11-21T02:46:49;16.50;;;12.87;;
8399;SDS011;4237;47.030;15.396;2023-11-21T02:49:18;15.40;;;12.50;;
8399;SDS011;4237;47.030;15.396;2023-11-21T02:51:46;17.93;;;12.87;;
8399;SDS011;4237;47.030;15.396;2023-11-21T02:54:15;18.40;;;12.77;;
8399;SDS011;4237;47.030;15.396;2023-11-21T02:56:44;14.83;;;11.60;;
8399;SDS011;4237;47.030;15.396;2023-11-21T02:59:12;17.00;;;13.40;;
8399;SDS011;4237;47.030;15.396;2023-11-21T03:01:42;18.07;;;12.20;;
8399;SDS011;4237;47.030;15.396;2023-11-21T03:04:13;14.23;;;12.07;;
8399;SDS011;4237;47.030;15.396;2023-11-21T03:06:43;14.13;;;11.00;;
8399;SDS011;4237;47.030;15.396;2023-11-21T03:09:12;15.00;;;11.37;;
8399;SDS011;4237;47.030;15.396;2023-11-21T03:11:44;12.47;;;10.40;;
8399;SDS011;4237;47.030;15.396;2023-11-21T03:14:12;12.43;;;10.80;;
8399;SDS011;4237;47.030;15.396;2023-11-21T03:16:41;12.77;;;10.57;;
8399;SDS011;4237;47.030;15.396;2023-11-21T03:19:12;12.77;;;10.47;;
8399;SDS011;4237;47.030;15.396;2023-11-21T03:21:41;15.23;;;10.73;;
8399;SDS011;4237;47.030;15.396;2023-11-21T03:24:10;14.10;;;10.13;;
8399;SDS011;4237;47.030;15.396;2023-11-21T03:26:39;12.67;;;10.70;;
8399;SDS011;4237;47.030;15.396;2023-11-21T03:29:08;13.93;;;11.10;;
8399;SDS011;4237;47.030;15.396;2023-11-21T03:31:36;12.53;;;10.37;;
8399;SDS011;4237;47.030;15.396;2023-11-21T03:34:05;12.60;;;9.93;;
8399;SDS011;4237;47.030;15.396;2023-11-21T03:36:33;12.57;;;10.23;;
8399;SDS011;4237;47.030;15.396;2023-11-21T03:39:03;11.57;;;8.83;;
8399;SDS011;4237;47.030;15.396;2023-11-21T03:41:32;11.10;;;9.07;;
8399;SDS011;4237;47.030;15.396;2023-11-21T03:44:01;11.30;;;9.20;;
8399;SDS011;4237;47.030;15.396;2023-11-21T03:46:29;10.57;;;8.83;;
8399;SDS011;4237;47.030;15.396;2023-11-21T03:48:58;10.60;;;8.90;;
8399;SDS011;4237;47.030;15.396;2023-11-21T03:51:26;9.83;;;8.77;;
8399;SDS011;4237;47.030;15.396;2023-11-21T03:53:55;11.37;;;9.17;;
8399;SDS011;4237;47.030;15.396;2023-11-21T03:56:24;14.67;;;9.50;;
8399;SDS011;4237;47.030;15.396;2023-11-21T03:58:52;13.50;;;8.60;;
8399;SDS011;4237;47.030;15.396;2023-11-21T04:01:21;13.40;;;10.03;;
8399;SDS011;4237;47.030;15.396;2023-11-21T04:03:50;12.37;;;9.40;;
8399;SDS011;4237;47.030;15.396;2023-11-21T04:06:19;10.80;;;9.43;;
8399;SDS011;4237;47.030;15.396;2023-11-21T04:08:48;14.20;;;9.77;;
8399;SDS011;4237;47.030;15.396;2023-11-21T04:11:16;11.57;;;8.93;;
8399;SDS011;4237;47.030;15.396;2023-11-21T04:13:45;12.23;;;10.20;;
8399;SDS011;4237;47.030;15.396;2023-11-21T04:16:13;13.10;;;10.00;;
8399;SDS011;4237;47.030;15.396;2023-11-21T04:18:42;11.30;;;8.97;;
8399;SDS011;4237;47.030;15.396;2023-11-21T04:21:10;12.50;;;9.37;;
8399;SDS011;4237;47.030;15.396;2023-11-21T04:23:39;11.87;;;9.33;;
8399;SDS011;4237;47.030;15.396;2023-11-21T04:26:07;10.40;;;9.23;;
8399;SDS011;4237;47.030;15.396;2023-11-21T04:28:36;10.87;;;9.33;;
8399;SDS011;4237;47.030;15.396;2023-11-21T04:31:05;12.97;;;9.67;;
8399;SDS011;4237;47.030;15.396;2023-11-21T04:33:34;11.00;;;9.17;;
8399;SDS011;4237;47.030;15.396;2023-11-21T04:36:02;12.40;;;9.50;;
8399;SDS011;4237;47.030;15.396;2023-11-21T04:38:31;12.73;;;10.40;;
8399;SDS011;4237;47.030;15.396;2023-11-21T04:41:00;11.20;;;8.83;;
8399;SDS011;4237;47.030;15.396;2023-11-21T04:43:28;13.27;;;10.50;;
8399;SDS011;4237;47.030;15.396;2023-11-21T04:45:57;11.07;;;9.17;;
8399;SDS011;4237;47.030;15.396;2023-11-21T04:48:26;10.93;;;9.10;;
8399;SDS011;4237;47.030;15.396;2023-11-21T04:50:55;12.13;;;9.50;;
8399;SDS011;4237;47.030;15.396;2023-11-21T04:53:23;12.23;;;9.43;;
8399;SDS011;4237;47.030;15.396;2023-11-21T04:55:52;12.40;;;9.53;;
8399;SDS011;4237;47.030;15.396;2023-11-21T04:58:20;11.53;;;9.23;;
8399;SDS011;4237;47.030;15.396;2023-11-21T05:00:49;12.93;;;10.80;;
8399;SDS011;4237;47.030;15.396;2023-11-21T05:03:17;14.97;;;10.97;;
8399;SDS011;4237;47.030;15.396;2023-11-21T05:05:46;15.00;;;11.57;;
8399;SDS011;4237;47.030;15.396;2023-11-21T05:08:14;13.17;;;10.27;;
8399;SDS011;4237;47.030;15.396;2023-11-21T05:10:44;15.07;;;11.03;;
8399;SDS011;4237;47.030;15.396;2023-11-21T05:13:12;13.10;;;9.90;;
8399;SDS011;4237;47.030;15.396;2023-11-21T05:15:43;13.43;;;9.60;;
8399;SDS011;4237;47.030;15.396;2023-11-21T05:18:12;11.97;;;10.07;;
8399;SDS011;4237;47.030;15.396;2023-11-21T05:20:43;14.90;;;9.67;;
8399;SDS011;4237;47.030;15.396;2023-11-21T05:23:12;11.27;;;9.37;;
8399;SDS011;4237;47.030;15.396;2023-11-21T05:25:40;13.10;;;9.27;;
8399;SDS011;4237;47.030;15.396;2023-11-21T05:28:09;12.13;;;9.90;;
8399;SDS011;4237;47.030;15.396;2023-11-21T05:30:38;11.67;;;9.37;;
8399;SDS011;4237;47.030;15.396;2023-11-21T05:33:06;12.83;;;8.60;;
8399;SDS011;4237;47.030;15.396;2023-11-21T05:35:35;13.40;;;9.80;;
8399;SDS011;4237;47.030;15.396;2023-11-21T05:38:04;16.33;;;10.53;;
8399;SDS011;4237;47.030;15.396;2023-11-21T05:40:32;13.47;;;10.30;;
8399;SDS011;4237;47.030;15.396;2023-11-21T05:43:01;16.23;;;11.30;;
8399;SDS011;4237;47.030;15.396;2023-11-21T05:45:29;16.10;;;10.53;;
8399;SDS011;4237;47.030;15.396;2023-11-21T05:47:58;12.83;;;9.83;;
8399;SDS011;4237;47.030;15.396;2023-11-21T05:50:27;13.83;;;9.77;;
8399;SDS011;4237;47.030;15.396;2023-11-21T05:52:55;12.83;;;9.73;;
8399;SDS011;4237;47.030;15.396;2023-11-21T05:55:25;16.87;;;10.03;;
8399;SDS011;4237;47.030;15.396;2023-11-21T05:57:54;13.87;;;10.27;;
8399;SDS011;4237;47.030;15.396;2023-11-21T06:00:23;12.47;;;10.23;;
8399;SDS011;4237;47.030;15.396;2023-11-21T06:02:54;13.63;;;10.37;;
8399;SDS011;4237;47.030;15.396;2023-11-21T06:05:24;15.00;;;10.13;;
8399;SDS011;4237;47.030;15.396;2023-11-21T06:07:54;15.47;;;10.57;;
8399;SDS011;4237;47.030;15.396;2023-11-21T06:10:25;11.93;;;10.13;;
8399;SDS011;4237;47.030;15.396;2023-11-21T06:12:55;13.20;;;10.23;;
8399;SDS011;4237;47.030;15.396;2023-11-21T06:15:24;13.53;;;10.07;;
8399;SDS011;4237;47.030;15.396;2023-11-21T06:17:53;15.37;;;10.50;;
8399;SDS011;4237;47.030;15.396;2023-11-21T06:20:22;13.90;;;11.00;;
8399;SDS011;4237;47.030;15.396;2023-11-21T06:22:50;17.63;;;10.50;;
8399;SDS011;4237;47.030;15.396;2023-11-21T06:25:20;14.07;;;9.70;;
8399;SDS011;4237;47.030;15.396;2023-11-21T06:27:49;12.83;;;9.57;;
8399;SDS011;4237;47.030;15.396;2023-11-21T06:30:20;12.53;;;10.27;;
8399;SDS011;4237;47.030;15.396;2023-11-21T06:32:50;12.93;;;9.93;;
8399;SDS011;4237;47.030;15.396;2023-11-21T06:35:19;14.30;;;11.40;;
8399;SDS011;4237;47.030;15.396;2023-11-21T06:37:49;11.90;;;10.03;;
8399;SDS011;4237;47.030;15.396;2023-11-21T06:40:19;13.63;;;10.20;;
8399;SDS011;4237;47.030;15.396;2023-11-21T06:42:48;13.57;;;10.60;;
8399;SDS011;4237;47.030;15.396;2023-11-21T06:45:17;14.70;;;10.67;;
8399;SDS011;4237;47.030;15.396;2023-11-21T06:47:47;14.43;;;11.87;;
8399;SDS011;4237;47.030;15.396;2023-11-21T06:50:16;15.63;;;11.63;;
8399;SDS011;4237;47.030;15.396;2023-11-21T06:52:45;13.93;;;10.87;;
8399;SDS011;4237;47.030;15.396;2023-11-21T06:55:14;14.33;;;10.70;;
8399;SDS011;4237;47.030;15.396;2023-11-21T06:57:43;13.43;;;10.80;;
8399;SDS011;4237;47.030;15.396;2023-11-21T07:00:12;14.70;;;11.53;;
8399;SDS011;4237;47.030;15.396;2023-11-21T07:02:44;15.17;;;10.43;;
8399;SDS011;4237;47.030;15.396;2023-11-21T07:05:12;12.50;;;10.13;;
8399;SDS011;4237;47.030;15.396;2023-11-21T07:07:42;13.43;;;9.97;;
8399;SDS011;4237;47.030;15.396;2023-11-21T07:10:10;13.97;;;10.00;;
8399;SDS011;4237;47.030;15.396;2023-11-21T07:12:39;12.17;;;9.70;;
8399;SDS011;4237;47.030;15.396;2023-11-21T07:15:09;16.37;;;10.83;;
8399;SDS011;4237;47.030;15.396;2023-11-21T07:17:38;14.73;;;11.37;;
8399;SDS011;4237;47.030;15.396;2023-11-21T07:20:07;15.47;;;11.50;;
8399;SDS011;4237;47.030;15.396;2023-11-21T07:22:36;18.50;;;12.23;;
8399;SDS011;4237;47.030;15.396;2023-11-21T07:25:05;18.27;;;13.20;;
8399;SDS011;4237;47.030;15.396;2023-11-21T07:27:35;18.97;;;14.17;;
8399;SDS011;4237;47.030;15.396;2023-11-21T07:30:04;20.20;;;14.07;;
8399;SDS011;4237;47.030;15.396;2023-11-21T07:32:37;19.60;;;14.40;;
8399;SDS011;4237;47.030;15.396;2023-11-21T07:35:07;21.43;;;14.70;;
8399;SDS011;4237;47.030;15.396;2023-11-21T07:37:36;22.47;;;15.37;;
8399;SDS011;4237;47.030;15.396;2023-11-21T07:40:05;23.27;;;16.50;;
8399;SDS011;4237;47.030;15.396;2023-11-21T07:42:35;22.13;;;16.50;;
8399;SDS011;4237;47.030;15.396;2023-11-21T07:45:04;24.47;;;17.57;;
8399;SDS011;4237;47.030;15.396;2023-11-21T07:47:35;24.33;;;17.90;;
8399;SDS011;4237;47.030;15.396;2023-11-21T07:50:06;23.47;;;17.47;;
8399;SDS011;4237;47.030;15.396;2023-11-21T07:52:36;22.20;;;16.80;;
8399;SDS011;4237;47.030;15.396;2023-11-21T07:55:05;18.50;;;13.37;;
8399;SDS011;4237;47.030;15.396;2023-11-21T07:57:34;15.60;;;11.67;;
8399;SDS011;4237;47.030;15.396;2023-11-21T08:00:04;13.53;;;10.37;;
8399;SDS011;4237;47.030;15.396;2023-11-21T08:02:36;12.00;;;8.47;;
8399;SDS011;4237;47.030;15.396;2023-11-21T08:05:04;14.30;;;10.80;;
8399;SDS011;4237;47.030;15.396;2023-11-21T08:07:34;13.23;;;11.37;;
8399;SDS011;4237;47.030;15.396;2023-11-21T08:10:03;14.73;;;10.63;;
8399;SDS011;4237;47.030;15.396;2023-11-21T08:12:32;12.23;;;10.30;;
8399;SDS011;4237;47.030;15.396;2023-11-21T08:15:01;14.67;;;10.80;;
8399;SDS011;4237;47.030;15.396;2023-11-21T08:17:30;12.40;;;10.53;;
8399;SDS011;4237;47.030;15.396;2023-11-21T08:19:59;13.27;;;9.47;;
8399;SDS011;4237;47.030;15.396;2023-11-21T08:22:30;12.80;;;9.43;;
8399;SDS011;4237;47.030;15.396;2023-11-21T08:24:58;11.43;;;9.70;;
8399;SDS011;4237;47.030;15.396;2023-11-21T08:27:27;12.40;;;9.73;;
8399;SDS011;4237;47.030;15.396;2023-11-21T08:29:55;11.00;;;9.27;;
8399;SDS011;4237;47.030;15.396;2023-11-21T08:32:25;9.87;;;8.40;;
8399;SDS011;4237;47.030;15.396;2023-11-21T08:34:55;11.53;;;8.50;;
8399;SDS011;4237;47.030;15.396;2023-11-21T08:37:23;11.90;;;9.00;;
8399;SDS011;4237;47.030;15.396;2023-11-21T08:39:53;9.47;;;8.03;;
8399;SDS011;4237;47.030;15.396;2023-11-21T08:42:22;8.40;;;7.50;;
8399;SDS011;4237;47.030;15.396;2023-11-21T08:44:50;9.33;;;7.37;;
8399;SDS011;4237;47.030;15.396;2023-11-21T08:47:19;10.23;;;7.77;;
8399;SDS011;4237;47.030;15.396;2023-11-21T08:49:50;10.97;;;8.03;;
8399;SDS011;4237;47.030;15.396;2023-11-21T08:52:20;12.10;;;8.20;;
8399;SDS011;4237;47.030;15.396;2023-11-21T08:54:50;10.73;;;8.43;;
8399;SDS011;4237;47.030;15.396;2023-11-21T08:57:26;10.37;;;7.23;;
8399;SDS011;4237;47.030;15.396;2023-11-21T08:59:55;11.17;;;7.73;;
8399;SDS011;4237;47.030;15.396;2023-11-21T09:02:25;9.37;;;8.20;;
8399;SDS011;4237;47.030;15.396;2023-11-21T09:04:53;9.43;;;8.33;;
8399;SDS011;4237;47.030;15.396;2023-11-21T09:07:22;9.23;;;8.23;;
8399;SDS011;4237;47.030;15.396;2023-11-21T09:09:50;9.03;;;8.03;;
8399;SDS011;4237;47.030;15.396;2023-11-21T09:12:19;14.20;;;8.63;;
8399;SDS011;4237;47.030;15.396;2023-11-21T09:14:48;11.43;;;8.50;;
8399;SDS011;4237;47.030;15.396;2023-11-21T09:17:17;12.07;;;8.77;;
8399;SDS011;4237;47.030;15.396;2023-11-21T09:19:46;9.13;;;8.17;;
8399;SDS011;4237;47.030;15.396;2023-11-21T09:22:17;9.80;;;8.13;;
8399;SDS011;4237;47.030;15.396;2023-11-21T09:24:45;9.80;;;7.13;;
8399;SDS011;4237;47.030;15.396;2023-11-21T09:27:15;10.37;;;8.10;;
8399;SDS011;4237;47.030;15.396;2023-11-21T09:29:44;10.97;;;9.10;;
8399;SDS011;4237;47.030;15.396;2023-11-21T09:32:14;14.87;;;9.83;;
8399;SDS011;4237;47.030;15.396;2023-11-21T09:34:44;14.10;;;10.60;;
8399;SDS011;4237;47.030;15.396;2023-11-21T09:37:13;13.87;;;10.30;;
8399;SDS011;4237;47.030;15.396;2023-11-21T09:39:42;14.67;;;10.60;;
8399;SDS011;4237;47.030;15.396;2023-11-21T09:42:12;14.07;;;9.57;;
8399;SDS011;4237;47.030;15.396;2023-11-21T09:45:00;11.50;;;9.03;;
8399;SDS011;4237;47.030;15.396;2023-11-21T09:47:31;13.40;;;10.10;;
8399;SDS011;4237;47.030;15.396;2023-11-21T09:50:03;16.30;;;10.60;;
8399;SDS011;4237;47.030;15.396;2023-11-21T09:52:37;13.90;;;10.40;;
8399;SDS011;4237;47.030;15.396;2023-11-21T09:55:09;12.57;;;10.67;;
8399;SDS011;4237;47.030;15.396;2023-11-21T09:57:39;14.63;;;11.43;;
8399;SDS011;4237;47.030;15.396;2023-11-21T10:00:09;14.30;;;11.07;;
8399;SDS011;4237;47.030;15.396;2023-11-21T10:02:42;14.10;;;11.20;;
8399;SDS011;4237;47.030;15.396;2023-11-21T10:05:11;15.20;;;10.90;;
8399;SDS011;4237;47.030;15.396;2023-11-21T10:07:40;11.40;;;9.30;;
8399;SDS011;4237;47.030;15.396;2023-11-21T10:10:13;12.17;;;9.90;;
8399;SDS011;4237;47.030;15.396;2023-11-21T10:12:45;11.37;;;9.83;;
8399;SDS011;4237;47.030;15.396;2023-11-21T10:15:16;14.80;;;10.13;;
8399;SDS011;4237;47.030;15.396;2023-11-21T10:17:48;18.67;;;9.50;;
8399;SDS011;4237;47.030;15.396;2023-11-21T10:20:19;15.70;;;12.43;;
8399;SDS011;4237;47.030;15.396;2023-11-21T10:22:50;12.03;;;10.70;;
8399;SDS011;4237;47.030;15.396;2023-11-21T10:25:19;12.03;;;9.50;;
8399;SDS011;4237;47.030;15.396;2023-11-21T10:27:48;11.17;;;9.00;;
8399;SDS011;4237;47.030;15.396;2023-11-21T10:30:19;11.60;;;7.87;;
8399;SDS011;4237;47.030;15.396;2023-11-21T10:32:48;9.50;;;8.50;;
8399;SDS011;4237;47.030;15.396;2023-11-21T10:35:17;11.90;;;8.80;;
8399;SDS011;4237;47.030;15.396;2023-11-21T10:37:45;14.00;;;9.20;;
8399;SDS011;4237;47.030;15.396;2023-11-21T10:40:17;12.87;;;8.63;;
8399;SDS011;4237;47.030;15.396;2023-11-21T10:42:45;13.63;;;9.73;;
8399;SDS011;4237;47.030;15.396;2023-11-21T10:45:14;10.70;;;8.37;;
8399;SDS011;4237;47.030;15.396;2023-11-21T10:47:43;11.47;;;8.00;;
8399;SDS011;4237;47.030;15.396;2023-11-21T10:50:12;11.80;;;8.73;;
8399;SDS011;4237;47.030;15.396;2023-11-21T10:52:42;9.90;;;8.37;;
8399;SDS011;4237;47.030;15.396;2023-11-21T10:55:17;9.70;;;8.70;;
8399;SDS011;4237;47.030;15.396;2023-11-21T10:57:52;11.33;;;8.17;;
8399;SDS011;4237;47.030;15.396;2023-11-21T11:00:22;11.73;;;10.23;;
8399;SDS011;4237;47.030;15.396;2023-11-21T11:02:52;10.43;;;8.10;;
8399;SDS011;4237;47.030;15.396;2023-11-21T11:05:23;12.37;;;8.97;;
8399;SDS011;4237;47.030;15.396;2023-11-21T11:07:58;11.67;;;8.63;;
8399;SDS011;4237;47.030;15.396;2023-11-21T11:10:26;13.17;;;8.80;;
8399;SDS011;4237;47.030;15.396;2023-11-21T11:12:59;11.23;;;9.77;;
8399;SDS011;4237;47.030;15.396;2023-11-21T11:15:28;11.63;;;8.83;;
8399;SDS011;4237;47.030;15.396;2023-11-21T11:17:58;15.37;;;12.03;;
8399;SDS011;4237;47.030;15.396;2023-11-21T11:20:33;18.63;;;13.80;;
8399;SDS011;4237;47.030;15.396;2023-11-21T11:26:18;13.30;;;10.33;;
8399;SDS011;4237;47.030;15.396;2023-11-21T11:34:26;9.87;;;8.17;;
8399;SDS011;4237;47.030;15.396;2023-11-21T11:37:03;10.17;;;7.37;;
8399;SDS011;4237;47.030;15.396;2023-11-21T11:39:35;12.80;;;8.93;;
8399;SDS011;4237;47.030;15.396;2023-11-21T11:42:07;11.93;;;9.43;;
8399;SDS011;4237;47.030;15.396;2023-11-21T11:47:16;11.67;;;8.20;;
8399;SDS011;4237;47.030;15.396;2023-11-21T11:52:49;8.30;;;7.50;;
8399;SDS011;4237;47.030;15.396;2023-11-21T11:55:22;8.00;;;7.20;;
8399;SDS011;4237;47.030;15.396;2023-11-21T11:57:53;8.30;;;7.13;;
8399;SDS011;4237;47.030;15.396;2023-11-21T12:00:33;8.23;;;5.43;;
8399;SDS011;4237;47.030;15.396;2023-11-21T12:02:58;7.83;;;6.83;;
8399;SDS011;4237;47.030;15.396;2023-11-21T12:05:31;7.40;;;5.83;;
8399;SDS011;4237;47.030;15.396;2023-11-21T12:08:08;7.20;;;6.50;;
8399;SDS011;4237;47.030;15.396;2023-11-21T12:10:39;9.37;;;7.53;;
8399;SDS011;4237;47.030;15.396;2023-11-21T12:13:08;8.30;;;7.00;;
8399;SDS011;4237;47.030;15.396;2023-11-21T12:15:39;10.97;;;6.70;;
8399;SDS011;4237;47.030;15.396;2023-11-21T12:18:08;9.43;;;7.17;;
8399;SDS011;4237;47.030;15.396;2023-11-21T12:20:37;9.80;;;8.00;;
8399;SDS011;4237;47.030;15.396;2023-11-21T12:23:07;10.33;;;7.93;;
8399;SDS011;4237;47.030;15.396;2023-11-21T12:25:37;10.40;;;7.93;;
8399;SDS011;4237;47.030;15.396;2023-11-21T12:28:06;9.87;;;8.13;;
8399;SDS011;4237;47.030;15.396;2023-11-21T12:30:35;9.63;;;7.83;;
8399;SDS011;4237;47.030;15.396;2023-11-21T12:33:04;8.80;;;7.90;;
8399;SDS011;4237;47.030;15.396;2023-11-21T12:35:35;9.03;;;8.10;;
8399;SDS011;4237;47.030;15.396;2023-11-21T12:38:04;9.23;;;8.07;;
8399;SDS011;4237;47.030;15.396;2023-11-21T12:40:33;10.63;;;8.43;;
8399;SDS011;4237;47.030;15.396;2023-11-21T12:43:01;8.70;;;7.70;;
8399;SDS011;4237;47.030;15.396;2023-11-21T12:45:32;10.90;;;8.30;;
8399;SDS011;4237;47.030;15.396;2023-11-21T12:48:02;8.87;;;7.70;;
8399;SDS011;4237;47.030;15.396;2023-11-21T12:50:34;12.80;;;7.47;;
8399;SDS011;4237;47.030;15.396;2023-11-21T12:53:08;10.80;;;8.17;;
8399;SDS011;4237;47.030;15.396;2023-11-21T12:55:39;10.00;;;7.57;;
8399;SDS011;4237;47.030;15.396;2023-11-21T12:58:09;10.70;;;8.20;;
8399;SDS011;4237;47.030;15.396;2023-11-21T13:00:40;10.63;;;8.07;;
8399;SDS011;4237;47.030;15.396;2023-11-21T13:03:15;10.23;;;8.00;;
8399;SDS011;4237;47.030;15.396;2023-11-21T13:05:47;9.30;;;7.60;;
8399;SDS011;4237;47.030;15.396;2023-11-21T13:08:17;13.80;;;8.83;;
8399;SDS011;4237;47.030;15.396;2023-11-21T13:10:53;11.70;;;8.73;;
8399;SDS011;4237;47.030;15.396;2023-11-21T13:13:23;13.60;;;8.47;;
8399;SDS011;4237;47.030;15.396;2023-11-21T13:15:59;10.43;;;7.30;;
8399;SDS011;4237;47.030;15.396;2023-11-21T13:18:27;10.90;;;8.43;;
8399;SDS011;4237;47.030;15.396;2023-11-21T13:20:58;11.40;;;8.40;;
8399;SDS011;4237;47.030;15.396;2023-11-21T13:23:34;11.17;;;7.87;;
8399;SDS011;4237;47.030;15.396;2023-11-21T13:26:03;10.67;;;9.13;;
8399;SDS011;4237;47.030;15.396;2023-11-21T13:28:33;12.27;;;8.80;;
8399;SDS011;4237;47.030;15.396;2023-11-21T13:31:04;13.17;;;9.37;;
8399;SDS011;4237;47.030;15.396;2023-11-21T13:33:35;10.67;;;9.57;;
8399;SDS011;4237;47.030;15.396;2023-11-21T13:36:08;13.97;;;10.13;;
8399;SDS011;4237;47.030;15.396;2023-11-21T13:38:37;14.00;;;11.27;;
8399;SDS011;4237;47.030;15.396;2023-11-21T13:41:08;15.93;;;11.80;;
8399;SDS011;4237;47.030;15.396;2023-11-21T13:43:38;14.30;;;9.67;;
8399;SDS011;4237;47.030;15.396;2023-11-21T13:46:09;11.23;;;9.13;;
8399;SDS011;4237;47.030;15.396;2023-11-21T13:48:42;11.93;;;9.80;;
8399;SDS011;4237;47.030;15.396;2023-11-21T13:51:12;15.63;;;10.83;;
8399;SDS011;4237;47.030;15.396;2023-11-21T13:53:43;14.23;;;9.97;;
8399;SDS011;4237;47.030;15.396;2023-11-21T13:56:14;13.27;;;10.53;;
8399;SDS011;4237;47.030;15.396;2023-11-21T13:58:47;17.00;;;10.87;;
8399;SDS011;4237;47.030;15.396;2023-11-21T14:01:17;13.73;;;10.80;;
8399;SDS011;4237;47.030;15.396;2023-11-21T14:04:01;13.77;;;10.23;;
8399;SDS011;4237;47.030;15.396;2023-11-21T14:06:48;11.87;;;10.63;;
8399;SDS011;4237;47.030;15.396;2023-11-21T14:09:20;12.07;;;10.03;;
8399;SDS011;4237;47.030;15.396;2023-11-21T14:11:52;15.30;;;10.43;;
8399;SDS011;4237;47.030;15.396;2023-11-21T14:14:27;15.87;;;10.90;;
8399;SDS011;4237;47.030;15.396;2023-11-21T14:16:56;14.70;;;10.90;;
8399;SDS011;4237;47.030;15.396;2023-11-21T14:19:25;13.57;;;10.83;;
8399;SDS011;4237;47.030;15.396;2023-11-21T14:21:56;12.80;;;11.17;;
8399;SDS011;4237;47.030;15.396;2023-11-21T14:24:24;14.40;;;11.57;;
8399;SDS011;4237;47.030;15.396;2023-11-21T14:26:53;14.77;;;11.77;;
8399;SDS011;4237;47.030;15.396;2023-11-21T14:29:23;15.17;;;12.50;;
8399;SDS011;4237;47.030;15.396;2023-11-21T14:31:51;15.30;;;11.83;;
8399;SDS011;4237;47.030;15.396;2023-11-21T14:34:22;15.13;;;12.63;;
8399;SDS011;4237;47.030;15.396;2023-11-21T14:36:53;13.77;;;11.83;;
8399;SDS011;4237;47.030;15.396;2023-11-21T14:39:22;16.03;;;13.43;;
8399;SDS011;4237;47.030;15.396;2023-11-21T14:41:53;16.80;;;14.37;;
8399;SDS011;4237;47.030;15.396;2023-11-21T14:44:27;18.47;;;15.40;;
8399;SDS011;4237;47.030;15.396;2023-11-21T14:46:57;20.03;;;14.67;;
8399;SDS011;4237;47.030;15.396;2023-11-21T14:49:27;20.10;;;16.10;;
8399;SDS011;4237;47.030;15.396;2023-11-21T14:51:57;21.00;;;15.07;;
8399;SDS011;4237;47.030;15.396;2023-11-21T14:54:33;18.00;;;14.13;;
8399;SDS011;4237;47.030;15.396;2023-11-21T14:57:08;15.33;;;13.77;;
8399;SDS011;4237;47.030;15.396;2023-11-21T14:59:45;15.03;;;12.80;;
8399;SDS011;4237;47.030;15.396;2023-11-21T15:02:23;18.67;;;13.60;;
8399;SDS011;4237;47.030;15.396;2023-11-21T15:05:10;15.70;;;13.53;;
8399;SDS011;4237;47.030;15.396;2023-11-21T15:07:40;18.53;;;15.63;;
8399;SDS011;4237;47.030;15.396;2023-11-21T15:10:10;19.03;;;14.97;;